Language selection

My Weather Profile Weather Topics  | 

Atlantic - Labrador: Past 24 Hour Conditions

 

Cartwright Airport

08:00 PM AST 05 February 2023
Disclaimer

This table is a summary of hourly weather conditions for the past 24 hours.
Please note that these observations might not always be representative of weather conditions over their associated marine area.

Date / Time
(AST)
Wind(knots) Conditions Visibility(km) Pressure(kPa) Air tempC) Relative humidity(%) Dew pointC) Wind Chill
05 February 2023
20:00 N 3 Cloudy 16 101.1 -18 67 -22 -22
19:00 SW 8 gust 15 Cloudy 16 101.1 -17 65 -22 -26
18:00 SW 8 gust 16 Cloudy 16 101.1 -17 63 -22 -25
17:00 SSW 17 gust 23 Cloudy 16 101.0 -17 58 -23 -28
16:00 S 6 Cloudy 16 101.1 -17 57 -24 -24
15:00 SSW 10 gust 18 Partly Cloudy 16 101.0 -17 57 -24 -26
14:00 SSW 12 gust 21 Sunny 16 101.0 -18 54 -25 -28
13:00 SW 12 gust 20 Partly Cloudy 16 101.0 -19 56 -25 -29
12:00 SW 13 gust 21 Sunny 16 101.1 -19 56 -26 -30
11:00 SW 13 gust 20 Sunny 16 101.1 -20 57 -26 -31
10:00 WSW 16 gust 23 Sunny 16 101.0 -20 57 -27 -33
9:00 WSW 14 gust 22 Sunny 16 101.0 -21 62 -26 -33
8:00 SW 7 Sunny 16 100.9 -22 60 -27 -30
7:00 W 12 gust 17 Mostly Cloudy 16 100.8 -20 52 -27 -31
6:00 W 13 gust 21 Mostly Cloudy 16 100.6 -19 59 -25 -30
5:00 WNW 20 gust 30 Partly Cloudy 16 100.4 -18 64 -23 -31
4:00 NW 21 gust 38 Cloudy 16 100.1 -16 68 -20 -29
3:00 WNW 22 gust 38 Light Snow 8 99.9 -15 73 -19 -28
2:00 WNW 28 gust 43 Blowing Snow 4 99.5 -14 74 -18 -28
1:00 WNW 31 gust 42 Blowing Snow 3 99.3 -13 78 -16 -27
0:00 NW 30 gust 44 Blowing Snow 2 98.9 -12 79 -15 -25
04 February 2023
23:00 NW 36 gust 52 Blowing Snow 0.8 98.5 -11 80 -14 -25
22:00 NW 31 gust 51 Blowing Snow 0.4 98.1 -11 86 -13 -23
21:00 NW 29 gust 47 Heavy Snow 0.2 97.7 -9 89 -11 -21
20:00 NW 5 Light Snow 2 97.6 -15 81 -18 -21

Zoom-in to make a selection

Map of Atlantic - Labrador marine weather areas Kangiqsualujjuaq Airport Cape Kakkiviak Cape Kiglapait Cartwright Airport CFB Goose Bay Hopedale Mary's Harbour Nain Airport Makkovik Airport Saglek Tukialik Bay
Legend:
buoy Buoy
land station Land Station

Atlantic - Labrador Area

Another Region

What we are doing

Date modified: